Terminal Aerodrome Forecast
Issued by NWS Newport/Morehead City, NC

Home | Current Version | Previous Version | Graphics & Text | Print | Product List | Glossary On
Versions: 1 2 3 4 5 6 7 8 9 10 11 12 13
000
FTUS42 KMHX 291100
TAFEWN
TAF
KEWN 291140Z 2912/3012 21004KT P6SM BKN060
     FM291300 06005KT P6SM SCT060
     FM291800 10007KT P6SM BKN040
     FM300100 12004KT P6SM SCT040
     FM300800 VRB02KT 5SM BR SCT005=

USA.gov is the U.S. government's official web portal to all federal, state and local government web resources and services.